createdAt,value
2023-05-20T00:02:44.916Z,72.88
2023-05-20T00:06:27.694Z,73.04
2023-05-20T00:10:11.143Z,72.95
2023-05-20T00:13:53.814Z,73.28
2023-05-20T00:17:37.914Z,73.25
2023-05-20T00:21:20.703Z,73.44
2023-05-20T00:25:03.394Z,73.44
2023-05-20T00:28:48.014Z,73.26
2023-05-20T00:32:31.002Z,73.54
2023-05-20T00:36:15.250Z,73.56
2023-05-20T00:39:57.956Z,73.59
2023-05-20T00:43:41.369Z,73.62
2023-05-20T00:47:27.610Z,73.40
2023-05-20T00:51:11.301Z,73.52
2023-05-20T00:54:55.491Z,73.62
2023-05-20T00:58:38.933Z,73.57
2023-05-20T01:02:21.787Z,74.00
2023-05-20T01:06:04.797Z,74.08
2023-05-20T01:09:48.115Z,74.18
2023-05-20T01:13:34.957Z,74.24
2023-05-20T01:17:21.082Z,74.27
2023-05-20T01:21:04.859Z,74.36
2023-05-20T01:24:49.364Z,74.45
2023-05-20T01:28:32.117Z,74.77
2023-05-20T01:32:20.813Z,74.63
2023-05-20T01:36:03.644Z,74.83
2023-05-20T01:39:48.342Z,75.09
2023-05-20T01:43:32.574Z,75.24
2023-05-20T01:47:15.316Z,75.24
2023-05-20T01:50:58.032Z,75.55
2023-05-20T01:54:40.709Z,75.70
2023-05-20T01:58:23.425Z,75.86
2023-05-20T02:02:07.608Z,76.15
2023-05-20T02:05:50.504Z,76.32
2023-05-20T02:09:33.249Z,76.50
2023-05-20T02:13:15.933Z,76.67
2023-05-20T02:16:58.699Z,76.59
2023-05-20T02:20:42.844Z,76.56
2023-05-20T02:24:25.811Z,76.96
2023-05-20T02:28:10.726Z,76.92
2023-05-20T02:31:53.552Z,76.85
2023-05-20T02:35:36.608Z,77.15
2023-05-20T02:39:20.730Z,77.39
2023-05-20T02:43:04.222Z,77.09
2023-05-20T02:46:46.975Z,77.16
2023-05-20T02:50:29.615Z,77.62
2023-05-20T02:54:12.479Z,77.66
2023-05-20T02:57:56.799Z,78.11
2023-05-20T03:01:40.495Z,78.19
2023-05-20T03:05:23.468Z,78.25
2023-05-20T03:09:06.257Z,78.28
2023-05-20T03:12:49.050Z,78.40
2023-05-20T03:16:35.502Z,78.74
2023-05-20T03:20:18.727Z,79.28
2023-05-20T03:24:01.464Z,79.59
2023-05-20T03:27:44.788Z,80.08
2023-05-20T03:31:27.551Z,80.33
2023-05-20T03:35:11.848Z,80.59
2023-05-20T03:38:54.613Z,80.81
2023-05-20T03:42:37.410Z,80.98
2023-05-20T03:46:20.125Z,81.26
2023-05-20T03:50:02.895Z,81.41
2023-05-20T03:53:46.919Z,81.68
2023-05-20T03:57:30.449Z,81.73
2023-05-20T04:01:14.332Z,81.90
2023-05-20T04:04:57.856Z,82.11
2023-05-20T04:08:40.793Z,82.03
2023-05-20T04:12:26.084Z,82.15
2023-05-20T04:16:09.007Z,82.27
2023-05-20T04:19:51.875Z,82.22
2023-05-20T04:23:34.565Z,82.27
2023-05-20T04:27:17.334Z,82.26
2023-05-20T04:31:02.777Z,82.29
2023-05-20T04:34:46.109Z,82.17
2023-05-20T04:38:30.134Z,82.10
2023-05-20T04:42:13.510Z,82.06
2023-05-20T04:45:56.258Z,81.73
2023-05-20T04:49:40.405Z,82.02
2023-05-20T04:53:23.404Z,82.46
2023-05-20T04:57:06.454Z,83.36
2023-05-20T05:00:49.229Z,83.31
2023-05-20T05:04:32.025Z,82.95
2023-05-20T05:08:17.271Z,83.17
2023-05-20T05:12:00.000Z,83.17
2023-05-20T05:15:42.745Z,83.50
2023-05-20T05:19:25.713Z,83.45
2023-05-20T05:23:08.771Z,83.26
2023-05-20T05:26:56.186Z,82.79
2023-05-20T05:30:38.965Z,82.67
2023-05-20T05:34:21.684Z,83.12
2023-05-20T05:38:04.416Z,84.13
2023-05-20T05:41:47.142Z,83.48
2023-05-20T05:45:31.398Z,82.40
2023-05-20T05:49:14.283Z,81.87
2023-05-20T05:52:57.014Z,82.03
2023-05-20T05:56:39.861Z,81.73
2023-05-20T06:00:22.735Z,80.48
2023-05-20T06:04:07.100Z,79.54
2023-05-20T06:07:49.851Z,78.20
2023-05-20T06:11:32.555Z,78.17
2023-05-20T06:15:15.315Z,78.48
2023-05-20T06:18:59.205Z,78.59
2023-05-20T06:22:44.335Z,77.74
2023-05-20T06:26:27.041Z,76.89
2023-05-20T06:30:10.397Z,76.62
2023-05-20T06:33:53.093Z,76.58
2023-05-20T06:37:35.796Z,75.04
2023-05-20T06:41:20.150Z,75.06
2023-05-20T06:45:07.081Z,74.29
2023-05-20T06:48:49.788Z,74.25
2023-05-20T06:52:33.820Z,74.51
2023-05-20T06:56:16.691Z,74.31
2023-05-20T07:00:00.780Z,73.88
2023-05-20T07:03:44.353Z,73.50
2023-05-20T07:07:27.180Z,74.65
2023-05-20T07:11:10.036Z,74.32
2023-05-20T07:14:52.735Z,73.29
2023-05-20T07:18:37.011Z,72.47
2023-05-20T07:22:19.925Z,71.82
2023-05-20T07:26:02.680Z,71.78
2023-05-20T07:29:45.643Z,71.41
2023-05-20T07:33:29.648Z,72.11
2023-05-20T07:37:13.761Z,71.27
2023-05-20T07:40:56.516Z,71.37
2023-05-20T07:44:40.103Z,71.78
2023-05-20T07:48:22.916Z,71.92
2023-05-20T07:52:06.462Z,71.76
2023-05-20T07:55:50.666Z,71.47
2023-05-20T07:59:33.419Z,71.95
2023-05-20T08:03:16.205Z,71.63
2023-05-20T08:06:59.029Z,71.27
2023-05-20T08:10:43.951Z,70.78
2023-05-20T08:14:28.050Z,70.09
2023-05-20T08:18:11.011Z,70.08
2023-05-20T08:21:54.410Z,70.07
2023-05-20T08:25:38.173Z,69.69
2023-05-20T08:29:20.901Z,69.11
2023-05-20T08:33:05.145Z,68.90
2023-05-20T08:36:47.933Z,68.27
2023-05-20T08:40:30.691Z,68.32
2023-05-20T08:44:13.659Z,67.94
2023-05-20T08:47:56.438Z,68.07
2023-05-20T08:51:42.922Z,67.42
2023-05-20T08:55:27.024Z,67.70
2023-05-20T08:59:10.257Z,67.83
2023-05-20T09:02:53.295Z,67.93
2023-05-20T09:06:45.416Z,67.95
2023-05-20T09:10:28.142Z,68.34
2023-05-20T09:14:10.865Z,67.72
2023-05-20T09:17:53.675Z,67.46
2023-05-20T09:21:37.385Z,67.22
2023-05-20T09:25:34.303Z,66.21
2023-05-20T09:29:17.240Z,64.93
2023-05-20T09:33:01.438Z,64.61
2023-05-20T09:36:45.394Z,63.27
2023-05-20T09:40:31.366Z,63.16
2023-05-20T09:44:16.325Z,63.12
2023-05-20T09:47:59.161Z,61.56
2023-05-20T09:51:43.157Z,60.67
2023-05-20T09:55:26.481Z,61.33
2023-05-20T09:59:11.898Z,61.28
2023-05-20T10:02:55.033Z,60.70
2023-05-20T10:07:06.570Z,60.87
2023-05-20T10:10:53.463Z,58.61
2023-05-20T10:14:49.246Z,58.53
2023-05-20T10:18:41.545Z,59.05
2023-05-20T10:22:29.095Z,58.09
2023-05-20T10:26:11.903Z,58.46
2023-05-20T10:29:57.128Z,58.28
2023-05-20T10:33:44.088Z,59.11
2023-05-20T10:37:29.060Z,58.94
2023-05-20T10:41:12.132Z,59.11
2023-05-20T10:44:56.251Z,58.06
2023-05-20T10:48:43.992Z,57.95
2023-05-20T10:52:27.019Z,57.67
2023-05-20T10:56:22.976Z,56.47
2023-05-20T11:00:06.692Z,57.37
2023-05-20T11:03:50.699Z,55.39
2023-05-20T11:07:34.182Z,54.33
2023-05-20T11:11:17.207Z,54.16
2023-05-20T11:15:04.784Z,53.38
2023-05-20T11:18:49.803Z,52.61
2023-05-20T11:22:32.633Z,52.33
2023-05-20T11:26:15.517Z,52.27
2023-05-20T11:29:58.394Z,51.46
2023-05-20T11:33:44.738Z,50.79
2023-05-20T11:37:30.144Z,50.93
2023-05-20T11:41:12.811Z,50.59
2023-05-20T11:45:01.448Z,50.38
2023-05-20T11:48:54.512Z,51.10
2023-05-20T11:52:37.268Z,51.17
2023-05-20T11:56:20.026Z,50.51
2023-05-20T12:00:02.893Z,51.69
2023-05-20T12:03:45.803Z,51.60
2023-05-20T12:07:29.959Z,50.42
2023-05-20T12:11:12.676Z,50.39
2023-05-20T12:14:55.435Z,50.20
2023-05-20T12:18:38.069Z,47.22
2023-05-20T12:22:20.868Z,46.84
2023-05-20T12:26:05.663Z,47.08
2023-05-20T12:29:48.377Z,46.78
2023-05-20T12:33:31.050Z,47.19
2023-05-20T12:37:13.820Z,47.29
2023-05-20T12:40:56.639Z,46.50
2023-05-20T12:44:40.684Z,45.83
2023-05-20T12:48:23.419Z,44.25
2023-05-20T12:52:11.924Z,44.22
2023-05-20T12:56:01.828Z,44.34
2023-05-20T12:59:46.016Z,44.03
2023-05-20T13:03:28.697Z,43.95
2023-05-20T13:07:11.387Z,44.80
2023-05-20T13:10:54.210Z,43.68
2023-05-20T13:14:37.418Z,42.98
2023-05-20T13:18:21.528Z,42.94
2023-05-20T13:22:04.266Z,42.64
2023-05-20T13:25:46.950Z,42.83
2023-05-20T13:29:29.713Z,43.30
2023-05-20T13:33:12.431Z,43.81
2023-05-20T13:36:56.565Z,42.66
2023-05-20T13:40:39.292Z,42.76
2023-05-20T13:44:22.109Z,43.99
2023-05-20T13:48:05.712Z,42.40
2023-05-20T13:51:48.465Z,44.17
2023-05-20T13:55:32.832Z,43.36
2023-05-20T13:59:15.569Z,43.34
2023-05-20T14:03:00.510Z,43.89
2023-05-20T14:06:43.212Z,43.97
2023-05-20T14:10:25.925Z,44.76
2023-05-20T14:14:10.201Z,44.46
2023-05-20T14:17:52.916Z,44.51
2023-05-20T14:21:35.648Z,44.27
2023-05-20T14:25:18.367Z,44.89
2023-05-20T14:29:01.193Z,44.99
2023-05-20T14:32:45.438Z,44.78
2023-05-20T14:36:28.098Z,45.20
2023-05-20T14:40:14.116Z,45.36
2023-05-20T14:43:56.771Z,45.53
2023-05-20T14:47:40.058Z,46.53
2023-05-20T14:51:24.351Z,46.90
2023-05-20T14:55:09.200Z,47.59
2023-05-20T14:58:51.874Z,47.96
2023-05-20T15:02:34.686Z,48.38
2023-05-20T15:06:17.452Z,46.96
2023-05-20T15:10:01.924Z,46.97
2023-05-20T15:13:46.375Z,48.09
2023-05-20T15:17:29.182Z,48.33
2023-05-20T15:21:11.981Z,47.16
2023-05-20T15:24:54.625Z,47.33
2023-05-20T15:28:38.629Z,47.47
2023-05-20T15:32:21.409Z,47.10
2023-05-20T15:36:04.563Z,47.54
2023-05-20T15:39:47.234Z,47.03
2023-05-20T15:43:29.966Z,47.14
2023-05-20T15:47:14.084Z,46.79
2023-05-20T15:50:56.862Z,46.00
2023-05-20T15:54:39.608Z,45.45
2023-05-20T15:58:22.307Z,44.24
2023-05-20T16:02:05.168Z,43.31
2023-05-20T16:05:49.206Z,42.69
2023-05-20T16:09:31.837Z,42.37
2023-05-20T16:13:14.560Z,42.15
2023-05-20T16:16:57.253Z,42.40
2023-05-20T16:20:39.914Z,42.21
2023-05-20T16:24:24.041Z,43.23
2023-05-20T16:28:06.711Z,43.49
2023-05-20T16:31:49.430Z,47.13
2023-05-20T16:35:32.110Z,45.61
2023-05-20T16:39:14.925Z,46.03
2023-05-20T16:42:58.960Z,46.73
2023-05-20T16:46:41.701Z,46.34
2023-05-20T16:50:24.685Z,45.99
2023-05-20T16:54:08.346Z,47.53
2023-05-20T16:57:51.126Z,47.69
2023-05-20T17:01:35.384Z,48.27
2023-05-20T17:05:18.360Z,48.97
2023-05-20T17:09:02.822Z,49.71
2023-05-20T17:12:45.770Z,50.55
2023-05-20T17:16:28.618Z,51.47
2023-05-20T17:20:13.780Z,51.42
2023-05-20T17:23:56.525Z,52.64
2023-05-20T17:27:41.903Z,51.88
2023-05-20T17:31:24.581Z,51.85
2023-05-20T17:35:08.086Z,52.43
2023-05-20T17:38:52.471Z,52.60
2023-05-20T17:42:35.185Z,53.04
2023-05-20T17:46:17.892Z,53.07
2023-05-20T17:50:02.570Z,53.19
2023-05-20T17:53:45.706Z,53.36
2023-05-20T17:57:29.807Z,52.68
2023-05-20T18:01:12.516Z,53.28
2023-05-20T18:04:55.225Z,53.00
2023-05-20T18:08:37.871Z,53.86
2023-05-20T18:12:20.535Z,53.77
2023-05-20T18:16:05.054Z,54.69
2023-05-20T18:19:47.855Z,54.62
2023-05-20T18:23:30.662Z,55.85
2023-05-20T18:27:13.431Z,55.54
2023-05-20T18:30:57.504Z,55.37
2023-05-20T18:34:41.588Z,55.22
2023-05-20T18:38:24.662Z,56.71
2023-05-20T18:42:08.206Z,56.52
2023-05-20T18:45:52.357Z,57.43
2023-05-20T18:49:35.115Z,57.66
2023-05-20T18:53:19.269Z,58.05
2023-05-20T18:57:04.024Z,58.41
2023-05-20T19:00:46.892Z,58.66
2023-05-20T19:04:29.698Z,58.77
2023-05-20T19:08:12.477Z,59.16
2023-05-20T19:11:58.994Z,59.13
2023-05-20T19:15:41.952Z,59.24
2023-05-20T19:19:24.713Z,59.77
2023-05-20T19:23:07.490Z,60.24
2023-05-20T19:26:50.247Z,60.91
2023-05-20T19:30:34.359Z,61.29
2023-05-20T19:34:17.229Z,61.78
2023-05-20T19:38:00.150Z,62.14
2023-05-20T19:41:42.903Z,62.56
2023-05-20T19:45:25.879Z,61.97
2023-05-20T19:49:10.060Z,61.53
2023-05-20T19:52:52.808Z,61.64
2023-05-20T19:56:35.561Z,61.56
2023-05-20T20:00:18.861Z,61.62
2023-05-20T20:04:04.481Z,62.07
2023-05-20T20:07:49.523Z,62.17
2023-05-20T20:11:32.232Z,62.59
2023-05-20T20:15:15.389Z,62.45
2023-05-20T20:18:58.190Z,62.82
2023-05-20T20:22:41.289Z,62.95
2023-05-20T20:26:26.646Z,63.21
2023-05-20T20:30:10.646Z,63.22
2023-05-20T20:33:53.481Z,63.81
2023-05-20T20:37:37.756Z,63.72
2023-05-20T20:41:23.146Z,63.91
2023-05-20T20:45:12.302Z,64.13
2023-05-20T20:48:55.236Z,63.79
2023-05-20T20:52:38.634Z,63.84
2023-05-20T20:56:21.355Z,64.15
2023-05-20T21:00:13.553Z,64.14
2023-05-20T21:03:58.617Z,64.12
2023-05-20T21:07:42.646Z,64.23
2023-05-20T21:11:26.072Z,64.65
2023-05-20T21:15:12.409Z,64.30
2023-05-20T21:18:55.133Z,64.54
2023-05-20T21:22:39.307Z,64.53
2023-05-20T21:26:22.325Z,64.82
2023-05-20T21:30:05.599Z,64.90
2023-05-20T21:33:48.355Z,65.08
2023-05-20T21:37:31.184Z,65.35
2023-05-20T21:41:16.614Z,65.40
2023-05-20T21:44:59.612Z,65.70
2023-05-20T21:48:44.028Z,65.99
2023-05-20T21:52:26.864Z,65.77
2023-05-20T21:56:09.653Z,66.22
2023-05-20T21:59:53.695Z,66.06
2023-05-20T22:03:36.885Z,66.34
2023-05-20T22:07:19.723Z,66.22
2023-05-20T22:11:05.473Z,66.40
2023-05-20T22:14:48.463Z,66.57
2023-05-20T22:18:32.678Z,66.82
2023-05-20T22:22:15.441Z,66.96
2023-05-20T22:25:58.233Z,66.78
2023-05-20T22:29:41.264Z,66.91
2023-05-20T22:33:24.392Z,67.19
2023-05-20T22:37:09.466Z,67.48
2023-05-20T22:40:52.294Z,67.70
2023-05-20T22:44:37.967Z,67.78
2023-05-20T22:48:22.912Z,67.60
2023-05-20T22:52:07.713Z,67.73
2023-05-20T22:55:51.879Z,67.62
2023-05-20T22:59:36.576Z,68.09
2023-05-20T23:03:19.386Z,68.18
2023-05-20T23:07:02.108Z,68.18
2023-05-20T23:10:44.806Z,68.21
2023-05-20T23:14:28.900Z,68.73
2023-05-20T23:18:12.217Z,69.46
2023-05-20T23:21:54.993Z,69.09
2023-05-20T23:25:37.852Z,69.25
2023-05-20T23:29:21.445Z,69.14
2023-05-20T23:33:05.653Z,69.33
2023-05-20T23:36:49.930Z,69.22
2023-05-20T23:40:32.648Z,69.27
2023-05-20T23:44:15.795Z,68.70
2023-05-20T23:48:03.450Z,68.48
2023-05-20T23:51:47.549Z,68.42
2023-05-20T23:55:30.300Z,68.51
2023-05-20T23:59:13.107Z,68.24
